Time;durP1;ratioP1;P1;durP2;ratioP2;P2;SDS_P1;SDS_P2;PMS_P1;PMS_P2;Temp;Humidity;BMP_temperature;BMP_pressure;BME280_temperature;BME280_humidity;BME280_pressure;Samples;Min_cycle;Max_cycle;Signal;HPM_P1;HPM_P2
2024/01/30 00:01:10;;;;;;;;;;;;;;;6.82;100.00;102569.00;5042504;28;1961;-75
2024/01/30 00:03:36;;;;;;;;;;;;;;;6.80;100.00;102570.81;5047776;28;1184;-75
2024/01/30 00:06:03;;;;;;;;;;;;;;;6.80;100.00;102567.41;5053579;28;981;-76
2024/01/30 00:08:28;;;;;;;;;;;;;;;6.79;100.00;102561.41;5047149;28;1203;-77
2024/01/30 00:10:53;;;;;;;;;;;;;;;6.78;100.00;102570.03;5045035;28;1147;-75
2024/01/30 00:13:19;;;;;;;;;;;;;;;6.76;100.00;102566.66;5043267;28;1136;-75
2024/01/30 00:15:44;;;;;;;;;;;;;;;6.75;100.00;102562.41;5049246;28;1014;-75
2024/01/30 00:18:10;;;;;;;;;;;;;;;6.74;100.00;102565.88;5051170;28;1059;-76
2024/01/30 00:20:35;;;;;;;;;;;;;;;6.74;100.00;102560.72;5044565;28;1629;-75
2024/01/30 00:23:01;;;;;;;;;;;;;;;6.72;100.00;102561.69;5052340;28;1902;-76
2024/01/30 00:25:26;;;;;;;;;;;;;;;6.70;100.00;102564.31;5047697;28;1128;-75
2024/01/30 00:27:51;;;;;;;;;;;;;;;6.68;100.00;102560.97;5053968;28;1104;-75
2024/01/30 00:30:17;;;;;;;;;;;;;;;6.67;100.00;102558.44;5045974;28;1375;-75
2024/01/30 00:32:42;;;;;;;;;;;;;;;6.63;100.00;102555.13;5045005;28;1234;-75
2024/01/30 00:35:09;;;;;;;;;;;;;;;6.60;100.00;102560.41;5054354;28;1461;-75
2024/01/30 00:37:34;;;;;;;;;;;;;;;6.57;100.00;102552.78;5044442;28;1291;-75
2024/01/30 00:40:00;;;;;;;;;;;;;;;6.56;100.00;102551.09;5042715;28;1208;-76
2024/01/30 00:42:25;;;;;;;;;;;;;;;6.54;100.00;102552.91;5043425;28;1972;-76
2024/01/30 00:44:50;;;;;;;;;;;;;;;6.54;100.00;102547.75;5049526;28;1100;-76
2024/01/30 00:47:15;;;;;;;;;;;;;;;6.50;100.00;102552.19;5052029;28;1063;-75
2024/01/30 00:49:41;;;;;;;;;;;;;;;6.49;100.00;102552.25;5047991;28;1350;-75
2024/01/30 00:52:06;;;;;;;;;;;;;;;6.45;100.00;102548.09;5041945;28;1245;-75
2024/01/30 00:54:31;;;;;;;;;;;;;;;6.41;100.00;102546.50;5053332;28;1145;-76
2024/01/30 00:56:56;;;;;;;;;;;;;;;6.37;100.00;102544.06;5057091;28;1112;-75
2024/01/30 00:59:22;;;;;;;;;;;;;;;6.34;100.00;102536.44;5053699;22;1447;-75
2024/01/30 01:01:47;;;;;;;;;;;;;;;6.28;100.00;102541.81;5027081;28;1911;-76
2024/01/30 01:04:12;;;;;;;;;;;;;;;6.25;100.00;102536.78;5025860;28;1056;-75
2024/01/30 01:06:37;;;;;;;;;;;;;;;6.23;100.00;102535.97;5034724;28;1058;-75
2024/01/30 01:09:03;;;;;;;;;;;;;;;6.21;100.00;102540.34;5023693;28;1028;-77
2024/01/30 01:11:28;;;;;;;;;;;;;;;6.20;100.00;102530.09;5024064;28;1073;-75
2024/01/30 01:13:54;;;;;;;;;;;;;;;6.16;100.00;102531.09;5028069;28;1000;-75
2024/01/30 01:16:19;;;;;;;;;;;;;;;6.14;100.00;102538.91;5025342;28;1498;-77
2024/01/30 01:18:44;;;;;;;;;;;;;;;6.10;100.00;102532.16;5031473;28;1094;-78
2024/01/30 01:21:09;;;;;;;;;;;;;;;6.09;100.00;102535.63;5033785;28;1902;-77
2024/01/30 01:23:34;;;;;;;;;;;;;;;6.08;100.00;102528.81;5022925;28;1185;-79
2024/01/30 01:26:00;;;;;;;;;;;;;;;6.07;100.00;102532.25;5021300;28;1125;-76
2024/01/30 01:28:26;;;;;;;;;;;;;;;6.06;100.00;102525.44;5024218;28;1217;-79
2024/01/30 01:30:51;;;;;;;;;;;;;;;6.04;100.00;102527.22;5019849;28;1264;-77
2024/01/30 01:33:17;;;;;;;;;;;;;;;6.04;100.00;102519.50;5011385;28;1118;-78
2024/01/30 01:35:42;;;;;;;;;;;;;;;6.02;100.00;102529.88;5008693;28;1092;-78
2024/01/30 01:38:07;;;;;;;;;;;;;;;6.00;100.00;102525.66;5015433;28;1219;-77
2024/01/30 01:40:32;;;;;;;;;;;;;;;5.99;100.00;102519.66;5010590;28;1371;-78
2024/01/30 01:42:58;;;;;;;;;;;;;;;5.99;100.00;102516.25;5002530;28;1894;-77
2024/01/30 01:45:23;;;;;;;;;;;;;;;5.98;100.00;102515.41;5004431;28;1213;-77
2024/01/30 01:47:50;;;;;;;;;;;;;;;5.98;100.00;102509.41;5021280;28;1332;-77
2024/01/30 01:50:19;;;;;;;;;;;;;;;5.96;100.00;102518.91;5007794;28;1126;-77
2024/01/30 01:52:46;;;;;;;;;;;;;;;5.95;100.00;102507.78;5025299;28;1130;-77
2024/01/30 01:55:12;;;;;;;;;;;;;;;5.94;100.00;102507.84;4996598;28;1005;-77
2024/01/30 01:57:37;;;;;;;;;;;;;;;5.93;100.00;102516.47;5000865;28;1414;-77
2024/01/30 02:00:04;;;;;;;;;;;;;;;5.93;100.00;102514.72;5007944;28;1570;-77
2024/01/30 02:02:30;;;;;;;;;;;;;;;5.88;100.00;102505.44;5000595;28;1934;-78
2024/01/30 02:04:56;;;;;;;;;;;;;;;5.91;100.00;102507.91;5021705;28;1166;-77
2024/01/30 02:07:21;;;;;;;;;;;;;;;5.88;100.00;102513.16;4998485;28;1106;-78
2024/01/30 02:09:47;;;;;;;;;;;;;;;5.85;100.00;102517.53;5007568;28;1082;-77
2024/01/30 02:12:12;;;;;;;;;;;;;;;5.85;100.00;102512.41;5001439;28;1021;-77
2024/01/30 02:14:44;;;;;;;;;;;;;;;5.85;100.00;102496.94;5017047;28;1098;-78
2024/01/30 02:17:09;;;;;;;;;;;;;;;5.83;100.00;102488.41;5007087;28;1107;-77
2024/01/30 02:19:34;;;;;;;;;;;;;;;5.80;100.00;102498.84;5009551;28;1128;-77
2024/01/30 02:21:59;;;;;;;;;;;;;;;5.77;100.00;102490.38;5014740;28;1910;-78
2024/01/30 02:24:25;;;;;;;;;;;;;;;5.75;100.00;102489.59;5019734;28;1147;-77
2024/01/30 02:26:50;;;;;;;;;;;;;;;5.72;100.00;102492.25;5021175;28;1274;-78
2024/01/30 02:29:15;;;;;;;;;;;;;;;5.70;100.00;102487.16;5031192;28;1490;-76
2024/01/30 02:31:40;;;;;;;;;;;;;;;5.70;100.00;102488.91;5020669;28;1140;-77
2024/01/30 02:34:05;;;;;;;;;;;;;;;5.69;100.00;102495.78;5028071;28;1449;-77
2024/01/30 02:36:30;;;;;;;;;;;;;;;5.71;100.00;102495.72;5010892;28;1356;-78
2024/01/30 02:38:56;;;;;;;;;;;;;;;5.73;100.00;102492.19;5008269;28;1298;-77
2024/01/30 02:41:21;;;;;;;;;;;;;;;5.75;100.00;102499.88;5029511;28;1961;-78
2024/01/30 02:43:47;;;;;;;;;;;;;;;5.77;100.00;102498.09;4997988;28;1217;-77
2024/01/30 02:46:12;;;;;;;;;;;;;;;5.79;100.00;102497.16;5017051;28;1325;-77
2024/01/30 02:48:39;;;;;;;;;;;;;;;5.80;100.00;102498.00;5018990;28;1098;-77
2024/01/30 02:51:04;;;;;;;;;;;;;;;5.81;100.00;102492.78;5014341;28;1061;-78
2024/01/30 02:53:29;;;;;;;;;;;;;;;5.82;100.00;102497.03;5024970;28;1170;-77
2024/01/30 02:55:54;;;;;;;;;;;;;;;5.81;100.00;102482.50;5019131;28;1355;-77
2024/01/30 02:58:19;;;;;;;;;;;;;;;5.83;100.00;102480.69;5009199;28;1274;-77
2024/01/30 03:00:45;;;;;;;;;;;;;;;5.83;100.00;102475.53;5014997;28;1031;-77
2024/01/30 03:03:10;;;;;;;;;;;;;;;5.83;100.00;102472.97;5002602;28;1983;-77
2024/01/30 03:05:35;;;;;;;;;;;;;;;5.81;100.00;102464.47;5011603;28;1121;-77
2024/01/30 03:08:00;;;;;;;;;;;;;;;5.82;100.00;102463.56;5008553;28;1061;-77
2024/01/30 03:10:25;;;;;;;;;;;;;;;5.81;100.00;102459.31;5007411;28;1034;-78
2024/01/30 03:12:51;;;;;;;;;;;;;;;5.82;100.00;102463.56;5014795;28;1193;-77
2024/01/30 03:15:16;;;;;;;;;;;;;;;5.82;100.00;102455.84;5032494;28;1174;-77
2024/01/30 03:17:41;;;;;;;;;;;;;;;5.81;100.00;102454.16;5011725;28;1129;-77
2024/01/30 03:20:07;;;;;;;;;;;;;;;5.78;100.00;102453.41;5015975;28;1089;-77
2024/01/30 03:22:32;;;;;;;;;;;;;;;5.80;100.00;102452.50;5001307;28;2049;-77
2024/01/30 03:24:57;;;;;;;;;;;;;;;5.81;100.00;102453.31;5010406;28;1162;-77
2024/01/30 03:27:23;;;;;;;;;;;;;;;5.81;100.00;102443.03;5011047;28;1087;-79
2024/01/30 03:29:48;;;;;;;;;;;;;;;5.82;100.00;102445.53;5008296;28;959;-77
2024/01/30 03:32:13;;;;;;;;;;;;;;;5.81;100.00;102433.56;5017009;28;1254;-77
2024/01/30 03:34:39;;;;;;;;;;;;;;;5.83;100.00;102444.63;5006747;28;1214;-77
2024/01/30 03:37:04;;;;;;;;;;;;;;;5.84;100.00;102428.28;5004041;28;1051;-77
2024/01/30 03:39:30;;;;;;;;;;;;;;;5.86;100.00;102431.66;5003339;28;1156;-78
2024/01/30 03:41:56;;;;;;;;;;;;;;;5.86;100.00;102434.25;5001457;28;1922;-78
2024/01/30 03:44:21;;;;;;;;;;;;;;;5.86;100.00;102441.97;5013213;28;1263;-77
2024/01/30 03:46:46;;;;;;;;;;;;;;;5.89;100.00;102450.47;5015511;28;1052;-77
2024/01/30 03:49:11;;;;;;;;;;;;;;;5.90;100.00;102434.13;5010669;28;1377;-77
2024/01/30 03:51:36;;;;;;;;;;;;;;;5.92;100.00;102445.25;5011425;28;1159;-78
2024/01/30 03:54:02;;;;;;;;;;;;;;;5.94;100.00;102443.44;5012891;28;1131;-77
2024/01/30 03:56:27;;;;;;;;;;;;;;;5.95;100.00;102442.56;5007420;28;1180;-77
2024/01/30 03:58:52;;;;;;;;;;;;;;;5.95;100.00;102445.13;5026094;28;1279;-78
2024/01/30 04:01:17;;;;;;;;;;;;;;;5.95;100.00;102447.69;5008531;28;1934;-77
2024/01/30 04:03:43;;;;;;;;;;;;;;;5.96;100.00;102459.69;5016398;28;1097;-77
2024/01/30 04:06:09;;;;;;;;;;;;;;;5.97;100.00;102458.81;5015492;28;985;-77
2024/01/30 04:08:34;;;;;;;;;;;;;;;5.97;100.00;102453.66;5015117;28;1093;-77
2024/01/30 04:11:02;;;;;;;;;;;;;;;5.98;100.00;102453.59;5013244;28;1082;-77
2024/01/30 04:13:28;;;;;;;;;;;;;;;6.00;100.00;102459.50;5014262;28;1132;-78
2024/01/30 04:15:55;;;;;;;;;;;;;;;6.01;100.00;102447.47;5012908;28;1072;-77
2024/01/30 04:18:20;;;;;;;;;;;;;;;6.03;100.00;102445.72;5008352;28;1121;-77
2024/01/30 04:20:45;;;;;;;;;;;;;;;6.06;100.00;102448.16;5008021;28;1127;-78
2024/01/30 04:23:10;;;;;;;;;;;;;;;6.06;100.00;102437.84;5008058;28;1961;-77
2024/01/30 04:25:35;;;;;;;;;;;;;;;6.06;100.00;102443.00;5011298;28;1099;-77
2024/01/30 04:28:01;;;;;;;;;;;;;;;6.07;100.00;102444.69;5002244;28;1356;-77
2024/01/30 04:30:26;;;;;;;;;;;;;;;6.08;100.00;102441.22;5008400;28;1134;-77
2024/01/30 04:32:51;;;;;;;;;;;;;;;6.09;100.00;102440.31;5017889;28;1070;-77
2024/01/30 04:35:16;;;;;;;;;;;;;;;6.10;100.00;102434.28;5018745;28;1162;-77
2024/01/30 04:37:41;;;;;;;;;;;;;;;6.11;100.00;102430.78;5004765;28;1075;-77
2024/01/30 04:40:07;;;;;;;;;;;;;;;6.12;100.00;102437.63;5007102;28;1027;-79
2024/01/30 04:42:32;;;;;;;;;;;;;;;6.11;100.00;102423.06;5005435;28;1898;-77
2024/01/30 04:44:57;;;;;;;;;;;;;;;6.11;100.00;102425.66;5004147;28;1146;-77
2024/01/30 04:47:22;;;;;;;;;;;;;;;6.12;100.00;102422.16;5005026;28;1283;-77
2024/01/30 04:49:47;;;;;;;;;;;;;;;6.13;100.00;102418.69;5003558;28;1580;-77
2024/01/30 04:52:13;;;;;;;;;;;;;;;6.12;100.00;102417.00;5003171;28;1248;-77
2024/01/30 04:54:38;;;;;;;;;;;;;;;6.12;100.00;102419.59;5010368;28;1131;-77
2024/01/30 04:57:03;;;;;;;;;;;;;;;6.12;100.00;102417.84;5003358;28;1168;-77
2024/01/30 04:59:28;;;;;;;;;;;;;;;6.13;100.00;102426.41;5003281;28;1209;-77
2024/01/30 05:01:54;;;;;;;;;;;;;;;6.15;100.00;102411.75;5011015;28;1988;-77
2024/01/30 05:04:19;;;;;;;;;;;;;;;6.16;100.00;102420.31;5025765;28;1143;-77
2024/01/30 05:06:44;;;;;;;;;;;;;;;6.14;100.00;102412.66;5002446;28;1294;-77
2024/01/30 05:09:09;;;;;;;;;;;;;;;6.15;100.00;102419.50;5014200;28;1177;-77
2024/01/30 05:11:38;;;;;;;;;;;;;;;6.16;100.00;102428.06;5007482;28;1197;-77
2024/01/30 05:14:04;;;;;;;;;;;;;;;6.17;100.00;102420.25;5002082;28;1076;-78
2024/01/30 05:16:29;;;;;;;;;;;;;;;6.18;100.00;102421.94;5011434;28;1192;-77
2024/01/30 05:18:54;;;;;;;;;;;;;;;6.20;100.00;102425.31;5017755;28;1401;-79
2024/01/30 05:21:19;;;;;;;;;;;;;;;6.21;100.00;102414.09;4998404;28;1907;-79
2024/01/30 05:23:44;;;;;;;;;;;;;;;6.21;100.00;102421.84;5007178;28;1231;-77
2024/01/30 05:26:09;;;;;;;;;;;;;;;6.20;100.00;102420.16;5003292;28;1026;-78
2024/01/30 05:28:35;;;;;;;;;;;;;;;6.21;100.00;102406.38;5002807;28;1354;-77
2024/01/30 05:31:00;;;;;;;;;;;;;;;6.22;100.00;102413.19;5012982;28;1275;-77
2024/01/30 05:33:25;;;;;;;;;;;;;;;6.23;100.00;102414.03;4999412;28;984;-78
2024/01/30 05:35:54;;;;;;;;;;;;;;;6.24;100.00;102411.41;4998503;28;1094;-78
2024/01/30 05:38:19;;;;;;;;;;;;;;;6.24;100.00;102406.25;5003969;28;1112;-76
2024/01/30 05:40:44;;;;;;;;;;;;;;;6.26;100.00;102404.47;4999152;28;1165;-76
2024/01/30 05:43:09;;;;;;;;;;;;;;;6.27;100.00;102411.28;5023671;28;1870;-75
2024/01/30 05:45:35;;;;;;;;;;;;;;;6.28;100.00;102418.13;5003296;28;1089;-77
2024/01/30 05:48:00;;;;;;;;;;;;;;;6.28;100.00;102418.13;5005205;28;1129;-75
2024/01/30 05:50:26;;;;;;;;;;;;;;;6.29;100.00;102429.25;5002343;28;1263;-76
2024/01/30 05:52:52;;;;;;;;;;;;;;;6.30;100.00;102416.31;5002408;28;1117;-75
2024/01/30 05:55:17;;;;;;;;;;;;;;;6.33;100.00;102425.69;5007428;28;1141;-76
2024/01/30 05:57:42;;;;;;;;;;;;;;;6.33;100.00;102418.78;5005679;28;1197;-75
2024/01/30 06:00:08;;;;;;;;;;;;;;;6.34;100.00;102407.56;5014484;28;1173;-75
2024/01/30 06:02:34;;;;;;;;;;;;;;;6.34;100.00;102417.88;5011129;28;1972;-75
2024/01/30 06:04:59;;;;;;;;;;;;;;;6.35;100.00;102411.81;5028698;28;1302;-74
2024/01/30 06:07:24;;;;;;;;;;;;;;;6.37;100.00;102416.94;4995192;28;1635;-75
2024/01/30 06:09:49;;;;;;;;;;;;;;;6.38;100.00;102419.47;4999859;28;1273;-75
2024/01/30 06:12:15;;;;;;;;;;;;;;;6.39;100.00;102415.97;5002946;28;1066;-77
2024/01/30 06:14:42;;;;;;;;;;;;;;;6.39;100.00;102421.13;5017210;28;1370;-75
2024/01/30 06:17:07;;;;;;;;;;;;;;;6.39;100.00;102421.13;5002933;28;1224;-76
2024/01/30 06:19:32;;;;;;;;;;;;;;;6.42;100.00;102424.47;5010595;28;1329;-75
2024/01/30 06:21:57;;;;;;;;;;;;;;;6.43;100.00;102423.59;4997855;28;2363;-76
2024/01/30 06:24:22;;;;;;;;;;;;;;;6.44;100.00;102427.84;5002920;28;1112;-76
2024/01/30 06:26:48;;;;;;;;;;;;;;;6.46;100.00;102431.19;5027708;28;1564;-76
2024/01/30 06:29:14;;;;;;;;;;;;;;;6.48;100.00;102439.69;5007472;28;1075;-75
2024/01/30 06:31:41;;;;;;;;;;;;;;;6.49;100.00;102441.41;5004891;28;1193;-75
2024/01/30 06:34:06;;;;;;;;;;;;;;;6.49;100.00;102425.94;5018960;28;1215;-75
2024/01/30 06:36:31;;;;;;;;;;;;;;;6.51;100.00;102418.97;5007632;28;1113;-75
2024/01/30 06:38:57;;;;;;;;;;;;;;;6.51;100.00;102419.81;4998949;28;1638;-75
2024/01/30 06:41:22;;;;;;;;;;;;;;;6.53;100.00;102424.91;5006847;28;1914;-75
2024/01/30 06:43:47;;;;;;;;;;;;;;;6.54;100.00;102424.03;5022364;28;1310;-77
2024/01/30 06:46:12;;;;;;;;;;;;;;;6.54;100.00;102436.91;5001055;28;1093;-76
2024/01/30 06:48:40;;;;;;;;;;;;;;;6.54;100.00;102434.34;5013316;28;1013;-75
2024/01/30 06:51:05;;;;;;;;;;;;;;;6.55;100.00;102434.28;5009607;28;1336;-75
2024/01/30 06:53:30;;;;;;;;;;;;;;;6.56;100.00;102437.69;5008608;28;1127;-76
2024/01/30 06:55:55;;;;;;;;;;;;;;;6.58;100.00;102441.03;4994987;28;1547;-75
2024/01/30 06:58:20;;;;;;;;;;;;;;;6.58;100.00;102435.88;5003850;28;1152;-75
2024/01/30 07:00:46;;;;;;;;;;;;;;;6.58;100.00;102439.28;5006210;28;1025;-75
2024/01/30 07:03:11;;;;;;;;;;;;;;;6.60;100.00;102449.56;5020620;28;1942;-75
2024/01/30 07:05:36;;;;;;;;;;;;;;;6.60;100.00;102449.56;5009013;28;1111;-75
2024/01/30 07:08:01;;;;;;;;;;;;;;;6.62;100.00;102452.91;5001697;28;1044;-74
2024/01/30 07:10:26;;;;;;;;;;;;;;;6.62;100.00;102458.06;5005768;28;1172;-75
2024/01/30 07:12:52;;;;;;;;;;;;;;;6.63;100.00;102454.59;5003202;28;1172;-75
2024/01/30 07:15:20;;;;;;;;;;;;;;;6.65;100.00;102452.78;4996807;28;1055;-76
2024/01/30 07:17:45;;;;;;;;;;;;;;;6.69;100.00;102448.34;5007312;28;1319;-75
2024/01/30 07:20:11;;;;;;;;;;;;;;;6.70;100.00;102461.19;5000430;28;1061;-75
2024/01/30 07:22:36;;;;;;;;;;;;;;;6.73;100.00;102465.38;5006903;28;1975;-75
2024/01/30 07:25:01;;;;;;;;;;;;;;;6.77;100.00;102469.53;5011087;28;1183;-75
2024/01/30 07:27:26;;;;;;;;;;;;;;;6.81;100.00;102468.50;5008163;28;1119;-75
2024/01/30 07:29:51;;;;;;;;;;;;;;;6.85;100.00;102454.59;5007581;28;1530;-76
2024/01/30 07:32:17;;;;;;;;;;;;;;;6.89;100.00;102459.56;5007961;28;1352;-75
2024/01/30 07:34:42;;;;;;;;;;;;;;;6.92;100.00;102458.59;5006993;28;1189;-76
2024/01/30 07:37:08;;;;;;;;;;;;;;;6.97;100.00;102463.56;4998618;28;1059;-75
2024/01/30 07:39:33;;;;;;;;;;;;;;;7.01;100.00;102475.44;5012298;28;1400;-75
2024/01/30 07:41:59;;;;;;;;;;;;;;;7.04;100.00;102475.31;5006023;28;1914;-75
2024/01/30 07:44:24;;;;;;;;;;;;;;;7.07;100.00;102481.19;5008149;28;1336;-74
2024/01/30 07:46:49;;;;;;;;;;;;;;;7.12;100.00;102483.59;5016319;28;1202;-75
2024/01/30 07:49:15;;;;;;;;;;;;;;;7.16;100.00;102485.13;5028012;28;1118;-75
2024/01/30 07:51:40;;;;;;;;;;;;;;;7.18;100.00;102481.59;5001006;28;1010;-75
2024/01/30 07:54:05;;;;;;;;;;;;;;;7.22;100.00;102484.88;5010913;28;1157;-75
2024/01/30 07:56:30;;;;;;;;;;;;;;;7.24;100.00;102483.09;5016525;28;1054;-75
2024/01/30 07:58:55;;;;;;;;;;;;;;;7.27;100.00;102480.38;5026319;28;1453;-75
2024/01/30 08:01:21;;;;;;;;;;;;;;;7.30;100.00;102488.00;5013635;28;1989;-76
2024/01/30 08:03:46;;;;;;;;;;;;;;;7.33;100.00;102487.88;5001789;28;1087;-75
2024/01/30 08:06:11;;;;;;;;;;;;;;;7.36;100.00;102487.75;5005710;28;1424;-75
2024/01/30 08:08:37;;;;;;;;;;;;;;;7.41;100.00;102500.47;5028880;28;1587;-75
2024/01/30 08:11:03;;;;;;;;;;;;;;;7.44;100.00;102490.84;5007607;28;1105;-75
2024/01/30 08:13:28;;;;;;;;;;;;;;;7.44;100.00;102496.00;5012586;28;1464;-75
2024/01/30 08:15:53;;;;;;;;;;;;;;;7.48;100.00;102498.47;5013857;28;1253;-77
2024/01/30 08:18:18;;;;;;;;;;;;;;;7.50;100.00;102500.06;5008424;28;1049;-75
2024/01/30 08:20:43;;;;;;;;;;;;;;;7.53;100.00;102493.97;5013328;28;1281;-76
2024/01/30 08:23:10;;;;;;;;;;;;;;;7.56;100.00;102501.56;5008682;28;1906;-75
2024/01/30 08:25:36;;;;;;;;;;;;;;;7.59;100.00;102502.28;5015523;28;1086;-75
2024/01/30 08:28:01;;;;;;;;;;;;;;;7.61;100.00;102507.38;5004677;28;1054;-75
2024/01/30 08:30:26;;;;;;;;;;;;;;;7.64;100.00;102507.25;5005128;28;1090;-75
2024/01/30 08:32:52;;;;;;;;;;;;;;;7.67;100.00;102497.63;5012470;28;1420;-75
2024/01/30 08:35:17;;;;;;;;;;;;;;;7.68;100.00;102498.44;4997191;28;1678;-76
2024/01/30 08:37:42;;;;;;;;;;;;;;;7.69;100.00;102501.00;5013595;28;1320;-75
2024/01/30 08:40:10;;;;;;;;;;;;;;;7.72;100.00;102503.44;5026200;28;1195;-76
2024/01/30 08:42:36;;;;;;;;;;;;;;;7.76;100.00;102496.41;5000143;28;1902;-75
2024/01/30 08:45:01;;;;;;;;;;;;;;;7.78;100.00;102498.91;5006443;28;1015;-75
2024/01/30 08:47:26;;;;;;;;;;;;;;;7.80;100.00;102492.78;5013580;28;1383;-77
2024/01/30 08:49:52;;;;;;;;;;;;;;;7.83;100.00;102489.22;5017201;28;1235;-75
2024/01/30 08:52:17;;;;;;;;;;;;;;;7.86;100.00;102487.34;5008822;28;1372;-75
2024/01/30 08:54:42;;;;;;;;;;;;;;;7.88;100.00;102495.88;5028888;28;1231;-75
2024/01/30 08:57:07;;;;;;;;;;;;;;;7.92;100.00;102502.59;5013915;28;1160;-75
2024/01/30 08:59:33;;;;;;;;;;;;;;;7.96;100.00;102498.94;5009706;28;1285;-75
2024/01/30 09:01:59;;;;;;;;;;;;;;;8.03;100.00;102501.25;4999245;28;1918;-75
2024/01/30 09:04:24;;;;;;;;;;;;;;;8.07;100.00;102495.88;5019469;28;1461;-76
2024/01/30 09:06:50;;;;;;;;;;;;;;;8.06;100.00;102501.13;5013036;28;1090;-77
2024/01/30 09:09:15;;;;;;;;;;;;;;;8.10;100.00;102502.69;5004002;28;994;-75
2024/01/30 09:11:43;;;;;;;;;;;;;;;8.11;100.00;102502.59;5018494;28;1258;-76
2024/01/30 09:14:08;;;;;;;;;;;;;;;8.14;100.00;102505.06;5008705;28;1150;-75
2024/01/30 09:16:34;;;;;;;;;;;;;;;8.19;100.00;102507.41;5012108;28;1202;-76
2024/01/30 09:18:59;;;;;;;;;;;;;;;8.22;100.00;102520.22;5011382;28;1388;-76
2024/01/30 09:21:24;;;;;;;;;;;;;;;8.33;100.00;102518.00;5004452;28;1898;-79
2024/01/30 09:23:49;;;;;;;;;;;;;;;8.30;100.00;102523.28;5008424;28;1034;-75
2024/01/30 09:26:14;;;;;;;;;;;;;;;8.33;100.00;102523.16;5008062;28;1247;-77
2024/01/30 09:28:42;;;;;;;;;;;;;;;8.33;100.00;102523.16;4995976;28;1296;-76
2024/01/30 09:31:10;;;;;;;;;;;;;;;8.33;100.00;102522.34;5007503;28;1131;-75
2024/01/30 09:33:39;;;;;;;;;;;;;;;8.34;100.00;102524.00;5013722;28;1462;-75
2024/01/30 09:36:05;;;;;;;;;;;;;;;8.35;100.00;102526.50;4992051;28;1223;-75
2024/01/30 09:38:30;;;;;;;;;;;;;;;8.37;100.00;102529.91;4998331;28;1198;-76
2024/01/30 09:40:56;;;;;;;;;;;;;;;8.44;100.00;102533.91;5005826;28;1099;-75
2024/01/30 09:43:22;;;;;;;;;;;;;;;8.45;100.00;102538.16;5004371;28;1898;-76
2024/01/30 09:45:48;;;;;;;;;;;;;;;8.48;100.00;102538.00;5012157;28;1050;-75
2024/01/30 09:48:15;;;;;;;;;;;;;;;8.54;100.00;102536.88;4999406;28;1178;-75
2024/01/30 09:50:40;;;;;;;;;;;;;;;8.61;100.00;102547.81;4999901;28;1415;-75
2024/01/30 09:53:07;;;;;;;;;;;;;;;8.67;100.00;102532.00;5001981;28;1134;-76
2024/01/30 09:55:33;;;;;;;;;;;;;;;8.73;100.00;102536.91;5003088;28;1082;-74
2024/01/30 09:57:59;;;;;;;;;;;;;;;8.75;100.00;102540.25;5002370;28;1258;-75
2024/01/30 10:00:27;;;;;;;;;;;;;;;8.88;100.00;102536.16;5019614;28;1281;-75
2024/01/30 10:02:52;;;;;;;;;;;;;;;8.95;100.00;102537.56;5000761;28;1938;-76
2024/01/30 10:05:18;;;;;;;;;;;;;;;9.07;100.00;102532.72;5014160;28;1448;-75
2024/01/30 10:07:52;;;;;;;;;;;;;;;8.99;100.00;102538.25;5008692;28;1133;-75
2024/01/30 10:10:17;;;;;;;;;;;;;;;9.07;100.00;102545.66;5005022;28;1162;-76
2024/01/30 10:12:43;;;;;;;;;;;;;;;9.09;100.00;102549.00;5001000;28;1328;-76
2024/01/30 10:15:08;;;;;;;;;;;;;;;9.10;100.00;102550.69;5003050;28;1143;-75
2024/01/30 10:17:37;;;;;;;;;;;;;;;9.14;100.00;102552.22;5007503;28;1176;-75
2024/01/30 10:20:04;;;;;;;;;;;;;;;9.15;100.00;102553.91;5003278;28;1386;-75
2024/01/30 10:22:29;;;;;;;;;;;;;;;9.21;100.00;102554.44;5000753;28;1898;-75
2024/01/30 10:24:55;;;;;;;;;;;;;;;9.16;100.00;102550.38;5000406;28;1421;-76
2024/01/30 10:27:24;;;;;;;;;;;;;;;9.17;100.00;102557.25;5010115;28;1507;-75
2024/01/30 10:29:49;;;;;;;;;;;;;;;9.19;100.00;102550.25;5011936;28;1257;-75
2024/01/30 10:32:15;;;;;;;;;;;;;;;9.16;100.00;102545.22;5013050;28;1141;-75
2024/01/30 10:34:40;;;;;;;;;;;;;;;9.19;100.00;102545.91;4996735;28;1337;-76
2024/01/30 10:37:12;;;;;;;;;;;;;;;9.23;100.00;102547.44;5004068;28;1127;-75
2024/01/30 10:39:38;;;;;;;;;;;;;;;9.24;100.00;102548.28;5003755;28;1404;-74
2024/01/30 10:42:05;;;;;;;;;;;;;;;9.28;100.00;102550.63;5006482;28;2046;-75
2024/01/30 10:44:34;;;;;;;;;;;;;;;9.31;100.00;102539.31;5013236;28;990;-75
2024/01/30 10:47:03;;;;;;;;;;;;;;;9.33;100.00;102540.06;5006618;28;1320;-74
2024/01/30 10:49:31;;;;;;;;;;;;;;;9.42;100.00;102547.38;5004319;28;1298;-75
2024/01/30 10:51:59;;;;;;;;;;;;;;;9.45;100.00;102547.22;5026020;28;1184;-75
2024/01/30 10:54:25;;;;;;;;;;;;;;;9.47;100.00;102550.59;5005753;28;1205;-75
2024/01/30 10:56:50;;;;;;;;;;;;;;;9.56;100.00;102552.72;5013173;28;1342;-76
2024/01/30 10:59:16;;;;;;;;;;;;;;;9.63;100.00;102555.81;5011730;28;1148;-75
2024/01/30 11:01:41;;;;;;;;;;;;;;;9.68;100.00;102551.25;5006584;28;1934;-76
2024/01/30 11:04:07;;;;;;;;;;;;;;;9.84;100.00;102557.34;5006706;28;1102;-75
2024/01/30 11:06:40;;;;;;;;;;;;;;;9.80;100.00;102557.56;5007333;28;1520;-75
2024/01/30 11:09:10;;;;;;;;;;;;;;;9.75;100.00;102559.59;5025765;28;1127;-75
2024/01/30 11:11:48;;;;;;;;;;;;;;;9.75;100.00;102544.88;5011260;28;1101;-75
2024/01/30 11:14:13;;;;;;;;;;;;;;;9.78;100.00;102551.63;5005169;28;1107;-75
2024/01/30 11:16:40;;;;;;;;;;;;;;;9.79;100.00;102553.31;5005697;28;1214;-76
2024/01/30 11:19:10;;;;;;;;;;;;;;;9.92;100.00;102562.16;5007241;28;1077;-77
2024/01/30 11:21:40;;;;;;;;;;;;;;;9.79;100.00;102561.09;5005742;28;1902;-76
2024/01/30 11:24:06;;;;;;;;;;;;;;;9.78;100.00;102562.00;5000233;28;1072;-76
2024/01/30 11:26:31;;;;;;;;;;;;;;;9.79;100.00;102561.09;5002964;28;1159;-76
2024/01/30 11:28:56;;;;;;;;;;;;;;;9.82;100.00;102555.75;5008837;28;1045;-75
2024/01/30 11:31:22;;;;;;;;;;;;;;;9.80;100.00;102560.16;5016750;28;1140;-74
2024/01/30 11:33:52;;;;;;;;;;;;;;;9.79;100.00;102551.56;4999119;28;1184;-76
2024/01/30 11:36:19;;;;;;;;;;;;;;;9.84;100.00;102553.91;5001520;28;1054;-75
2024/01/30 11:38:46;;;;;;;;;;;;;;;9.85;100.00;102553.00;5009186;28;1290;-79
2024/01/30 11:41:12;;;;;;;;;;;;;;;9.93;100.00;102552.63;5010068;28;1375;-75
2024/01/30 11:43:38;;;;;;;;;;;;;;;9.95;100.00;102556.81;5015065;28;1013;-75
2024/01/30 11:46:05;;;;;;;;;;;;;;;10.11;100.00;102542.13;5006268;28;1335;-75
2024/01/30 11:48:30;;;;;;;;;;;;;;;9.96;100.00;102548.09;5015477;28;990;-76
2024/01/30 11:50:55;;;;;;;;;;;;;;;9.98;100.00;102546.28;5012512;28;1077;-76
2024/01/30 11:53:21;;;;;;;;;;;;;;;10.01;100.00;102546.13;5008553;28;1053;-76
2024/01/30 11:55:50;;;;;;;;;;;;;;;9.99;100.00;102558.31;5016614;28;1168;-76
2024/01/30 11:58:15;;;;;;;;;;;;;;;10.00;100.00;102557.41;5011894;28;1196;-76
2024/01/30 12:00:40;;;;;;;;;;;;;;;10.06;100.00;102569.22;5014083;28;1135;-77
2024/01/30 12:03:06;;;;;;;;;;;;;;;10.08;100.00;102563.03;5014195;28;1919;-76
2024/01/30 12:05:32;;;;;;;;;;;;;;;10.26;100.00;102555.22;5009441;28;1036;-75
2024/01/30 12:08:00;;;;;;;;;;;;;;;10.21;100.00;102572.78;5015902;28;1141;-76
2024/01/30 12:10:25;;;;;;;;;;;;;;;10.20;100.00;102576.28;5014005;28;1021;-77
2024/01/30 12:12:51;;;;;;;;;;;;;;;10.23;99.73;102576.13;5009644;28;1212;-76
2024/01/30 12:15:16;;;;;;;;;;;;;;;10.23;98.73;102571.81;5010761;28;1094;-75
2024/01/30 12:17:42;;;;;;;;;;;;;;;10.13;97.00;102572.31;5019907;28;1418;-75
2024/01/30 12:20:08;;;;;;;;;;;;;;;10.09;97.23;102569.03;5002900;28;1178;-78
2024/01/30 12:22:40;;;;;;;;;;;;;;;9.97;96.88;102570.50;4996168;28;1901;-75
2024/01/30 12:25:08;;;;;;;;;;;;;;;10.02;94.76;102578.91;5008894;28;1258;-75
2024/01/30 12:27:33;;;;;;;;;;;;;;;9.91;96.78;102594.16;5011946;28;1157;-75
2024/01/30 12:29:58;;;;;;;;;;;;;;;9.90;98.29;102595.06;5016042;28;1103;-75
2024/01/30 12:32:24;;;;;;;;;;;;;;;10.04;98.21;102587.44;5003343;28;1154;-75
2024/01/30 12:34:49;;;;;;;;;;;;;;;9.96;99.58;102610.31;5005056;28;1101;-75
2024/01/30 12:37:17;;;;;;;;;;;;;;;10.17;97.00;102604.97;5002921;28;1383;-76
2024/01/30 12:39:42;;;;;;;;;;;;;;;9.89;99.44;102614.13;5005036;28;1161;-75